createdAt,value
2023-05-13T00:01:42.453Z,9.90
2023-05-13T00:05:45.686Z,9.90
2023-05-13T00:09:47.601Z,10.20
2023-05-13T00:13:51.005Z,10.20
2023-05-13T00:17:53.019Z,9.70
2023-05-13T00:21:55.032Z,9.70
2023-05-13T00:25:56.883Z,9.30
2023-05-13T00:30:00.073Z,9.80
2023-05-13T00:34:03.018Z,9.30
2023-05-13T00:38:04.919Z,9.30
2023-05-13T00:42:06.931Z,9.00
2023-05-13T00:46:09.160Z,8.40
2023-05-13T00:50:12.215Z,8.70
2023-05-13T00:54:14.195Z,9.20
2023-05-13T00:58:17.870Z,9.80
2023-05-13T01:02:32.853Z,9.70
2023-05-13T01:06:49.956Z,10.10
2023-05-13T01:10:59.147Z,9.60
2023-05-13T01:15:07.182Z,9.70
2023-05-13T01:19:32.254Z,10.20
2023-05-13T01:23:34.454Z,10.30
2023-05-13T01:27:36.316Z,10.40
2023-05-13T01:31:40.038Z,9.50
2023-05-13T01:35:42.788Z,9.90
2023-05-13T01:39:46.833Z,9.10
2023-05-13T01:43:50.436Z,9.60
2023-05-13T01:47:53.013Z,9.50
2023-05-13T01:51:55.198Z,9.40
2023-05-13T01:55:57.246Z,9.70
2023-05-13T01:59:59.230Z,10.00
2023-05-13T02:04:01.357Z,9.70
2023-05-13T02:08:03.281Z,9.70
2023-05-13T02:12:06.507Z,9.60
2023-05-13T02:16:08.358Z,9.60
2023-05-13T02:20:10.931Z,9.20
2023-05-13T02:24:13.761Z,9.50
2023-05-13T02:28:15.702Z,9.80
2023-05-13T02:32:17.650Z,9.40
2023-05-13T02:36:19.755Z,9.20
2023-05-13T02:40:22.824Z,9.10
2023-05-13T02:44:25.872Z,9.70
2023-05-13T02:48:27.907Z,9.80
2023-05-13T02:52:29.902Z,9.80
2023-05-13T02:56:31.993Z,9.70
2023-05-13T03:00:34.310Z,9.70
2023-05-13T03:04:36.711Z,9.90
2023-05-13T03:08:38.601Z,9.70
2023-05-13T03:12:40.414Z,9.70
2023-05-13T03:16:42.267Z,9.70
2023-05-13T03:20:44.070Z,9.70
2023-05-13T03:24:46.180Z,9.80
2023-05-13T03:28:48.766Z,9.50
2023-05-13T03:32:52.049Z,9.10
2023-05-13T03:36:54.160Z,9.10
2023-05-13T03:40:56.980Z,9.20
2023-05-13T03:44:59.701Z,9.50
2023-05-13T03:49:01.630Z,9.60
2023-05-13T03:53:04.580Z,9.60
2023-05-13T03:57:08.339Z,9.60
2023-05-13T04:01:10.796Z,9.80
2023-05-13T04:05:13.876Z,9.60
2023-05-13T04:09:15.955Z,9.90
2023-05-13T04:13:17.891Z,9.80
2023-05-13T04:17:19.671Z,9.80
2023-05-13T04:21:21.466Z,9.60
2023-05-13T04:25:23.902Z,9.70
2023-05-13T04:29:26.059Z,9.80
2023-05-13T04:33:28.272Z,9.90
2023-05-13T04:37:30.280Z,9.40
2023-05-13T04:41:35.444Z,9.20
2023-05-13T04:45:38.540Z,9.20
2023-05-13T04:49:43.189Z,9.50
2023-05-13T04:53:46.043Z,9.40
2023-05-13T04:57:48.744Z,9.10
2023-05-13T05:01:50.924Z,9.40
2023-05-13T05:05:52.882Z,9.50
2023-05-13T05:09:55.487Z,9.30
2023-05-13T05:13:58.065Z,9.30
2023-05-13T05:18:01.317Z,9.10
2023-05-13T05:22:03.549Z,9.00
2023-05-13T05:26:11.686Z,9.10
2023-05-13T05:30:17.069Z,8.80
2023-05-13T05:34:23.333Z,9.30
2023-05-13T05:38:25.571Z,8.80
2023-05-13T05:42:28.789Z,8.20
2023-05-13T05:46:31.413Z,8.70
2023-05-13T05:50:34.891Z,7.60
2023-05-13T05:54:39.135Z,7.40
2023-05-13T05:58:41.693Z,7.90
2023-05-13T06:02:43.876Z,7.80
2023-05-13T06:06:47.947Z,8.50
2023-05-13T06:10:50.036Z,9.30
2023-05-13T06:14:52.180Z,9.10
2023-05-13T06:18:57.002Z,8.30
2023-05-13T06:23:00.562Z,8.70
2023-05-13T06:27:02.786Z,9.30
2023-05-13T06:31:04.784Z,9.70
2023-05-13T06:35:07.265Z,9.10
2023-05-13T06:39:11.782Z,8.40
2023-05-13T06:43:16.274Z,8.40
2023-05-13T06:47:24.025Z,8.70
2023-05-13T06:51:30.625Z,9.30
2023-05-13T06:55:32.740Z,8.60
2023-05-13T06:59:35.754Z,8.90
2023-05-13T07:03:38.028Z,9.20
2023-05-13T07:07:39.990Z,8.50
2023-05-13T07:11:41.933Z,7.90
2023-05-13T07:15:43.929Z,8.50
2023-05-13T07:19:45.956Z,9.00
2023-05-13T07:23:47.821Z,8.90
2023-05-13T07:27:50.016Z,8.60
2023-05-13T07:31:52.115Z,7.80
2023-05-13T07:35:54.303Z,7.50
2023-05-13T07:39:56.390Z,8.20
2023-05-13T07:43:58.320Z,8.90
2023-05-13T07:48:00.475Z,8.80
2023-05-13T07:52:02.519Z,8.30
2023-05-13T07:56:04.829Z,9.40
2023-05-13T08:00:07.808Z,8.20
2023-05-13T08:04:14.867Z,8.20
2023-05-13T08:08:17.084Z,8.50
2023-05-13T08:12:18.990Z,9.20
2023-05-13T08:16:21.065Z,9.10
2023-05-13T08:20:29.373Z,9.30
2023-05-13T08:24:31.470Z,8.90
2023-05-13T08:28:33.507Z,9.60
2023-05-13T08:32:35.726Z,8.90
2023-05-13T08:36:37.684Z,9.50
2023-05-13T08:40:39.903Z,9.70
2023-05-13T08:44:43.651Z,9.80
2023-05-13T08:48:47.245Z,9.50
2023-05-13T08:52:52.207Z,10.00
2023-05-13T08:56:54.034Z,9.50
2023-05-13T09:00:56.737Z,9.60
2023-05-13T09:05:03.061Z,9.60
2023-05-13T09:09:05.945Z,9.30
2023-05-13T09:13:07.800Z,9.80
2023-05-13T09:17:09.632Z,8.90
2023-05-13T09:21:44.467Z,8.80
2023-05-13T09:25:47.102Z,8.50
2023-05-13T09:30:00.536Z,9.30
2023-05-13T09:34:02.483Z,10.30
2023-05-13T09:38:14.638Z,9.90
2023-05-13T09:42:17.861Z,9.70
2023-05-13T09:46:21.478Z,9.40
2023-05-13T09:50:24.137Z,10.30
2023-05-13T09:54:27.290Z,10.10
2023-05-13T09:58:30.854Z,10.10
2023-05-13T10:02:34.386Z,9.50
2023-05-13T10:06:37.433Z,9.80
2023-05-13T10:10:45.395Z,10.50
2023-05-13T10:14:51.606Z,9.20
2023-05-13T10:18:54.059Z,9.00
2023-05-13T10:22:57.057Z,9.40
2023-05-13T10:27:01.774Z,8.50
2023-05-13T10:31:04.243Z,9.20
2023-05-13T10:35:12.032Z,9.50
2023-05-13T10:39:28.814Z,9.40
2023-05-13T10:43:32.726Z,10.40
2023-05-13T10:47:36.159Z,10.40
2023-05-13T10:51:49.241Z,9.60
2023-05-13T10:55:59.203Z,10.30
2023-05-13T11:00:18.720Z,10.30
2023-05-13T11:04:21.551Z,9.60
2023-05-13T11:08:42.538Z,10.20
2023-05-13T11:13:09.074Z,10.30
2023-05-13T11:17:12.159Z,10.80
2023-05-13T11:21:14.050Z,11.20
2023-05-13T11:25:16.268Z,10.70
2023-05-13T11:29:34.673Z,11.00
2023-05-13T11:34:11.922Z,10.50
2023-05-13T11:38:24.666Z,10.70
2023-05-13T11:42:27.158Z,11.00
2023-05-13T11:46:30.145Z,10.90
2023-05-13T11:50:32.859Z,10.10
2023-05-13T11:54:48.397Z,10.90
2023-05-13T11:58:50.504Z,11.30
2023-05-13T12:02:53.246Z,10.40
2023-05-13T12:06:55.325Z,10.10
2023-05-13T12:10:59.176Z,10.60
2023-05-13T12:15:06.874Z,10.00
2023-05-13T12:19:08.944Z,10.20
2023-05-13T12:23:14.156Z,10.50
2023-05-13T12:27:16.079Z,9.70
2023-05-13T12:31:18.422Z,9.30
2023-05-13T12:35:23.787Z,10.10
2023-05-13T12:39:26.068Z,9.80
2023-05-13T12:43:27.868Z,10.00
2023-05-13T12:47:29.996Z,10.60
2023-05-13T12:51:34.130Z,10.30
2023-05-13T12:55:40.078Z,10.80
2023-05-13T12:59:42.769Z,10.20
2023-05-13T13:03:45.467Z,10.30
2023-05-13T13:07:47.961Z,10.80
2023-05-13T13:11:49.872Z,10.90
2023-05-13T13:15:51.786Z,10.70
2023-05-13T13:19:53.749Z,10.70
2023-05-13T13:23:55.678Z,9.00
2023-05-13T13:27:57.649Z,10.10
2023-05-13T13:31:59.551Z,10.50
2023-05-13T13:36:01.760Z,9.80
2023-05-13T13:40:04.068Z,9.70
2023-05-13T13:44:06.173Z,9.90
2023-05-13T13:48:08.238Z,9.90
2023-05-13T13:52:10.635Z,9.70
2023-05-13T13:56:12.596Z,9.40
2023-05-13T14:00:15.855Z,10.10
2023-05-13T14:04:27.579Z,10.80
2023-05-13T14:08:29.348Z,10.90
2023-05-13T14:12:31.598Z,10.40
2023-05-13T14:16:33.713Z,10.70
2023-05-13T14:20:36.063Z,11.50
2023-05-13T14:24:38.094Z,11.50
2023-05-13T14:28:40.049Z,10.30
2023-05-13T14:32:45.330Z,10.70
2023-05-13T14:36:47.343Z,11.30
2023-05-13T14:40:49.340Z,10.70
2023-05-13T14:44:51.182Z,11.40
2023-05-13T14:48:53.116Z,11.40
2023-05-13T14:52:54.922Z,11.80
2023-05-13T14:56:56.765Z,12.20
2023-05-13T15:00:58.738Z,12.70
2023-05-13T15:05:00.988Z,12.10
2023-05-13T15:09:03.501Z,12.50
2023-05-13T15:13:05.829Z,11.40
2023-05-13T15:17:11.828Z,11.30
2023-05-13T15:21:13.806Z,11.40
2023-05-13T15:25:15.775Z,12.40
2023-05-13T15:29:18.090Z,12.00
2023-05-13T15:33:20.061Z,11.40
2023-05-13T15:37:22.183Z,12.10
2023-05-13T15:41:24.169Z,12.30
2023-05-13T15:45:26.114Z,12.40
2023-05-13T15:49:28.293Z,12.50
2023-05-13T15:53:30.312Z,12.70
2023-05-13T15:57:32.488Z,12.30
2023-05-13T16:01:34.511Z,11.80
2023-05-13T16:05:37.043Z,12.40
2023-05-13T16:09:39.758Z,13.00
2023-05-13T16:13:41.820Z,12.80
2023-05-13T16:17:43.862Z,12.20
2023-05-13T16:21:45.779Z,12.10
2023-05-13T16:25:47.812Z,12.40
2023-05-13T16:29:50.521Z,13.20
2023-05-13T16:33:52.463Z,12.70
2023-05-13T16:37:54.537Z,13.40
2023-05-13T16:41:56.503Z,13.60
2023-05-13T16:45:58.471Z,13.70
2023-05-13T16:50:00.591Z,13.60
2023-05-13T16:54:02.651Z,13.40
2023-05-13T16:58:04.827Z,13.50
2023-05-13T17:02:07.401Z,13.20
2023-05-13T17:06:09.477Z,11.90
2023-05-13T17:10:11.417Z,12.00
2023-05-13T17:14:13.192Z,12.50
2023-05-13T17:18:15.113Z,12.10
2023-05-13T17:22:17.063Z,11.30
2023-05-13T17:26:20.143Z,11.70
2023-05-13T17:30:23.006Z,12.40
2023-05-13T17:34:25.295Z,11.00
2023-05-13T17:38:27.323Z,11.30
2023-05-13T17:42:30.282Z,11.60
2023-05-13T17:46:32.412Z,11.70
2023-05-13T17:50:34.453Z,12.40
2023-05-13T17:54:36.982Z,12.60
2023-05-13T17:58:39.066Z,12.70
2023-05-13T18:02:41.094Z,12.50
2023-05-13T18:06:43.220Z,12.50
2023-05-13T18:10:45.052Z,12.40
2023-05-13T18:14:46.815Z,12.30
2023-05-13T18:18:48.980Z,12.50
2023-05-13T18:22:51.014Z,12.80
2023-05-13T18:26:52.991Z,12.90
2023-05-13T18:30:54.924Z,13.00
2023-05-13T18:34:56.975Z,13.10
2023-05-13T18:38:59.252Z,13.10
2023-05-13T18:43:01.402Z,12.90
2023-05-13T18:47:04.745Z,12.70
2023-05-13T18:51:06.864Z,12.40
2023-05-13T18:55:09.075Z,12.10
2023-05-13T18:59:11.209Z,12.00
2023-05-13T19:03:13.520Z,11.00
2023-05-13T19:07:15.600Z,10.50
2023-05-13T19:11:17.425Z,10.90
2023-05-13T19:15:21.403Z,10.50
2023-05-13T19:19:24.492Z,10.90
2023-05-13T19:23:26.451Z,11.00
2023-05-13T19:27:28.464Z,11.40
2023-05-13T19:31:31.550Z,11.50
2023-05-13T19:35:33.987Z,11.50
2023-05-13T19:39:35.934Z,11.90
2023-05-13T19:43:37.823Z,11.80
2023-05-13T19:47:39.935Z,12.00
2023-05-13T19:51:42.049Z,12.10
2023-05-13T19:55:44.305Z,12.00
2023-05-13T19:59:47.357Z,12.00
2023-05-13T20:03:49.401Z,12.00
2023-05-13T20:07:51.377Z,11.90
2023-05-13T20:11:53.549Z,12.00
2023-05-13T20:15:55.524Z,12.00
2023-05-13T20:19:57.620Z,12.00
2023-05-13T20:23:59.477Z,11.90
2023-05-13T20:28:01.922Z,11.90
2023-05-13T20:32:05.095Z,11.70
2023-05-13T20:36:07.217Z,11.70
2023-05-13T20:40:09.719Z,11.30
2023-05-13T20:44:15.646Z,11.60
2023-05-13T20:48:17.821Z,11.70
2023-05-13T20:52:19.761Z,11.50
2023-05-13T20:56:22.089Z,11.60
2023-05-13T21:00:24.501Z,11.80
2023-05-13T21:04:26.775Z,11.30
2023-05-13T21:08:28.677Z,10.90
2023-05-13T21:12:30.656Z,11.40
2023-05-13T21:16:33.423Z,11.40
2023-05-13T21:20:35.447Z,11.50
2023-05-13T21:24:37.389Z,11.80
2023-05-13T21:28:40.163Z,11.70
2023-05-13T21:32:42.103Z,11.70
2023-05-13T21:36:44.850Z,11.80
2023-05-13T21:40:46.949Z,11.80
2023-05-13T21:44:48.862Z,11.90
2023-05-13T21:48:50.817Z,12.10
2023-05-13T21:52:52.789Z,11.90
2023-05-13T21:56:54.700Z,11.80
2023-05-13T22:00:56.904Z,11.90
2023-05-13T22:04:58.959Z,11.70
2023-05-13T22:09:01.673Z,11.50
2023-05-13T22:13:03.650Z,11.30
2023-05-13T22:17:09.768Z,11.50
2023-05-13T22:21:12.645Z,11.60
2023-05-13T22:25:14.614Z,11.60
2023-05-13T22:29:16.763Z,11.30
2023-05-13T22:33:19.287Z,10.90
2023-05-13T22:37:21.223Z,11.00
2023-05-13T22:41:23.884Z,10.70
2023-05-13T22:45:25.866Z,10.70
2023-05-13T22:49:27.925Z,11.00
2023-05-13T22:53:29.755Z,11.20
2023-05-13T22:57:31.684Z,11.40
2023-05-13T23:01:33.884Z,11.20
2023-05-13T23:05:35.768Z,11.20
2023-05-13T23:09:37.664Z,11.30
2023-05-13T23:13:39.503Z,10.90
2023-05-13T23:17:41.742Z,10.60
2023-05-13T23:21:43.941Z,10.40
2023-05-13T23:25:46.685Z,10.00
2023-05-13T23:29:48.591Z,10.60
2023-05-13T23:33:50.492Z,11.00
2023-05-13T23:37:52.426Z,10.90
2023-05-13T23:41:54.420Z,11.00
2023-05-13T23:45:56.526Z,11.30
2023-05-13T23:49:58.498Z,10.80
2023-05-13T23:54:00.857Z,11.00
2023-05-13T23:58:02.830Z,11.00
